Time;durP1;ratioP1;P1;durP2;ratioP2;P2;SDS_P1;SDS_P2;PMS_P1;PMS_P2;Temp;Humidity;BMP_temperature;BMP_pressure;BME280_temperature;BME280_humidity;BME280_pressure;Samples;Min_cycle;Max_cycle;Signal;HPM_P1;HPM_P2
2022/02/07 00:00:25;;;;;;;7.07;1.50;;;;;;;18.53;44.21;100742.13;5013467;28;20137;-62
2022/02/07 00:03:17;;;;;;;8.98;1.70;;;;;;;18.51;44.68;100738.78;5012831;28;20449;-62
2022/02/07 00:05:37;;;;;;;5.30;1.67;;;;;;;18.48;44.55;100755.72;5013190;28;20041;-62
2022/02/07 00:08:03;;;;;;;6.20;1.50;;;;;;;18.47;44.73;100763.78;5013219;28;20045;-62
2022/02/07 00:10:29;;;;;;;7.68;1.42;;;;;;;18.43;44.74;100767.63;5012488;28;20113;-62
2022/02/07 00:12:54;;;;;;;5.03;1.37;;;;;;;18.41;44.86;100783.59;5013442;28;20110;-62
2022/02/07 00:15:20;;;;;;;9.02;1.95;;;;;;;18.39;44.66;100798.72;5012974;28;20287;-62
2022/02/07 00:17:46;;;;;;;7.65;1.52;;;;;;;18.38;44.89;100807.59;5012519;28;20022;-62
2022/02/07 00:20:16;;;;;;;7.97;1.77;;;;;;;18.36;44.57;100813.94;5012796;28;19913;-62
2022/02/07 00:22:41;;;;;;;6.30;1.50;;;;;;;18.35;44.75;100826.31;5012976;28;20041;-62
2022/02/07 00:25:07;;;;;;;7.72;1.58;;;;;;;18.31;45.01;100841.56;5013164;28;20029;-62
2022/02/07 00:27:33;;;;;;;8.63;1.58;;;;;;;18.30;44.81;100846.97;5013146;28;20474;-62
2022/02/07 00:29:58;;;;;;;8.47;1.60;;;;;;;18.27;44.69;100853.31;5012443;28;20032;-62
2022/02/07 00:32:24;;;;;;;;;;;;;;;18.25;44.96;100855.25;5012864;28;20479;-62
2022/02/07 00:34:58;;;;;;;;;;;;;;;18.23;44.73;100859.81;5013308;28;19921;-62
2022/02/07 00:37:30;;;;;;;7.00;1.40;;;;;;;18.22;45.12;100875.78;5012350;28;19921;-62
2022/02/07 00:40:27;;;;;;;;;;;;;;;18.20;44.77;100882.94;5013239;28;20384;-62
2022/02/07 00:42:58;;;;;;;;;;;;;;;18.18;45.09;100892.78;5013227;28;20012;-62
2022/02/07 00:45:37;;;;;;;;;;;;;;;18.16;44.91;100895.56;5012042;28;20365;-62
2022/02/07 00:48:03;;;;;;;;;;;;;;;18.14;45.12;100926.50;5012599;28;20380;-62
2022/02/07 00:50:29;;;;;;;;;;;;;;;18.11;45.17;100917.03;5012927;28;19913;-63
2022/02/07 00:52:55;;;;;;;8.00;1.50;;;;;;;18.10;44.98;100933.81;5012451;28;19917;-62
2022/02/07 00:55:20;;;;;;;8.07;1.63;;;;;;;18.08;44.87;100941.00;5012329;28;20114;-63
2022/02/07 00:57:46;;;;;;;;;;;;;;;18.07;45.13;100952.53;5012949;28;20072;-62
2022/02/07 01:00:11;;;;;;;;;;;;;;;18.05;44.91;100972.88;5012207;28;20354;-62
2022/02/07 01:02:37;;;;;;;6.75;1.67;;;;;;;18.04;44.53;100959.81;5012679;28;20736;-63
2022/02/07 01:05:03;;;;;;;7.50;1.77;;;;;;;18.00;44.80;100964.50;5011966;28;20537;-62
2022/02/07 01:07:31;;;;;;;7.80;1.58;;;;;;;18.00;45.11;100975.06;5012230;28;20038;-62
2022/02/07 01:09:58;;;;;;;7.95;1.55;;;;;;;17.97;44.82;100979.75;5012524;28;20426;-62
2022/02/07 01:13:19;;;;;;;5.10;1.10;;;;;;;17.96;44.80;100981.56;5011331;28;20034;-61
2022/02/07 01:23:26;;;;;;;6.07;1.40;;;;;;;17.89;44.90;101006.69;5012621;28;20038;-62
2022/02/07 01:48:06;;;;;;;6.40;1.45;;;;;;;17.74;45.15;101162.44;5011512;28;20037;-62
2022/02/07 01:51:01;;;;;;;8.30;1.58;;;;;;;17.73;45.35;101146.72;5011997;28;20485;-62
2022/02/07 01:55:58;;;;;;;10.00;1.83;;;;;;;17.70;45.10;101158.31;5011508;28;20022;-62
2022/02/07 01:58:25;;;;;;;5.78;1.25;;;;;;;17.70;45.17;101168.88;5013471;28;20045;-63
2022/02/07 02:00:51;;;;;;;7.25;1.65;;;;;;;17.68;45.33;101170.78;5015947;28;20405;-63
2022/02/07 02:03:17;;;;;;;7.00;1.50;;;;;;;17.67;45.41;101182.28;5014813;28;20104;-63
2022/02/07 02:05:42;;;;;;;7.65;1.70;;;;;;;17.67;45.18;101202.53;5015734;28;20104;-63
2022/02/07 02:08:11;;;;;;;6.97;1.65;;;;;;;17.64;45.06;101232.63;5015349;28;20073;-63
2022/02/07 02:10:39;;;;;;;7.00;1.50;;;;;;;17.63;45.19;101257.28;5015418;28;20076;-63
2022/02/07 02:15:45;;;;;;;;;;;;;;;17.62;45.35;101239.75;5015357;28;20038;-63
2022/02/07 02:47:43;;;;;;;9.50;1.60;;;;;;;17.81;44.61;101315.72;5015115;28;20041;-62
2022/02/07 02:50:27;;;;;;;6.90;1.25;;;;;;;17.82;44.49;101316.59;5014482;28;20026;-61
2022/02/07 02:52:52;;;;;;;8.93;1.38;;;;;;;17.82;44.47;101333.22;5015073;28;20104;-62
2022/02/07 02:55:18;;;;;;;6.70;1.45;;;;;;;17.83;44.54;101337.56;5014599;28;20030;-62
2022/02/07 02:57:43;;;;;;;9.43;2.10;;;;;;;17.83;44.54;101339.34;5014058;28;20041;-61
2022/02/07 03:00:09;;;;;;;7.55;2.53;;;;;;;17.83;43.99;101361.28;5014253;28;20381;-62
2022/02/07 03:02:34;;;;;;;8.38;1.73;;;;;;;17.82;44.20;101366.69;5014443;28;20041;-62
2022/02/07 03:05:00;;;;;;;6.88;1.60;;;;;;;17.83;44.04;101377.13;5013754;28;20025;-62
2022/02/07 03:07:25;;;;;;;8.00;1.73;;;;;;;17.82;44.12;101379.84;5014238;28;20157;-62
2022/02/07 03:09:53;;;;;;;7.43;1.48;;;;;;;17.82;44.17;101385.13;5013943;28;20029;-62
2022/02/07 03:12:19;;;;;;;7.68;1.40;;;;;;;17.82;44.10;101387.78;5013386;28;20022;-63
2022/02/07 03:14:47;;;;;;;8.20;1.40;;;;;;;17.81;43.89;101400.09;5014439;28;20034;-63
2022/02/07 03:17:16;;;;;;;8.50;1.77;;;;;;;17.80;43.85;101406.34;5014032;28;20026;-63
2022/02/07 03:19:41;;;;;;;7.13;1.70;;;;;;;17.79;44.00;101420.44;5013350;28;20038;-63
2022/02/07 03:22:07;;;;;;;8.07;1.55;;;;;;;17.80;43.80;101423.94;5014250;28;20157;-62
2022/02/07 03:24:32;;;;;;;7.65;1.55;;;;;;;17.81;44.10;101426.44;5014428;28;20079;-62
2022/02/07 03:26:57;;;;;;;9.10;1.73;;;;;;;17.83;44.31;101439.53;5013482;28;20080;-62
2022/02/07 03:29:23;;;;;;;6.00;1.58;;;;;;;17.83;44.07;101442.16;5013741;28;20045;-62
2022/02/07 03:31:51;;;;;;;7.00;1.55;;;;;;;17.84;43.68;101438.59;5014088;28;20018;-62
2022/02/07 03:34:16;;;;;;;6.35;1.25;;;;;;;17.85;43.67;101446.38;5013196;28;20029;-62
2022/02/07 03:36:42;;;;;;;6.93;2.00;;;;;;;17.86;43.77;101457.78;5013975;28;20470;-62
2022/02/07 03:39:08;;;;;;;6.93;2.10;;;;;;;17.87;43.90;101462.09;5013599;28;20042;-62
2022/02/07 03:41:34;;;;;;;5.65;1.45;;;;;;;17.87;43.82;101476.13;5013255;28;20100;-61
2022/02/07 03:43:59;;;;;;;6.93;1.40;;;;;;;17.87;43.79;101476.13;5013821;28;20061;-62
2022/02/07 03:46:24;;;;;;;7.80;1.60;;;;;;;17.87;43.48;101484.03;5013439;28;20022;-61
2022/02/07 03:48:49;;;;;;;6.03;1.30;;;;;;;17.86;43.37;101484.13;5012925;28;20034;-61
2022/02/07 03:51:15;;;;;;;6.03;1.50;;;;;;;17.87;43.18;101493.75;5013430;28;20307;-63
2022/02/07 03:53:40;;;;;;;6.50;1.50;;;;;;;17.85;43.28;101499.13;5013183;28;20639;-62
2022/02/07 03:56:07;;;;;;;8.63;1.50;;;;;;;17.86;43.22;101505.22;5013796;28;20038;-63
2022/02/07 03:58:36;;;;;;;6.50;2.20;;;;;;;17.84;43.05;101507.97;5013452;28;20034;-62
2022/02/07 04:01:01;;;;;;;11.15;1.88;;;;;;;17.84;43.24;101520.31;5012738;28;20026;-62
2022/02/07 04:03:29;;;;;;;7.53;1.25;;;;;;;17.83;43.23;101524.78;5013435;28;20552;-63
2022/02/07 04:05:58;;;;;;;6.25;1.50;;;;;;;17.79;43.32;101528.56;5013645;28;20026;-62
2022/02/07 04:08:30;;;;;;;8.43;1.73;;;;;;;17.80;42.72;101535.53;5012475;28;20022;-63
2022/02/07 04:13:27;;;;;;;9.88;1.75;;;;;;;17.77;43.22;101547.09;5013094;28;20037;-62
2022/02/07 04:15:54;;;;;;;9.82;1.60;;;;;;;17.78;43.60;101558.50;5012834;28;20025;-62
2022/02/07 04:18:24;;;;;;;9.38;1.83;;;;;;;17.78;43.26;101563.75;5013216;28;20080;-62
2022/02/07 04:20:50;;;;;;;6.22;1.50;;;;;;;17.78;43.52;101569.03;5013006;28;20037;-62
2022/02/07 04:23:15;;;;;;;8.55;1.70;;;;;;;17.80;43.23;101574.22;5011987;28;20018;-62
2022/02/07 04:25:46;;;;;;;6.80;1.52;;;;;;;17.80;43.41;101582.13;5013657;28;20588;-60
2022/02/07 04:28:12;;;;;;;7.47;2.08;;;;;;;17.82;43.19;101580.25;5013444;28;20112;-61
2022/02/07 04:30:37;;;;;;;7.85;1.65;;;;;;;17.82;43.29;101590.78;5012741;28;20041;-62
2022/02/07 04:33:03;;;;;;;6.53;1.92;;;;;;;17.82;43.25;101602.16;5014187;28;20030;-62
2022/02/07 04:35:28;;;;;;;9.48;2.30;;;;;;;17.83;43.22;101611.78;5013979;28;20022;-62
2022/02/07 04:37:53;;;;;;;6.88;1.83;;;;;;;17.84;43.35;101623.16;5014576;28;20028;-62
2022/02/07 04:40:19;;;;;;;10.73;2.10;;;;;;;17.83;43.34;101629.38;5015459;28;20040;-62
2022/02/07 04:42:44;;;;;;;6.80;1.60;;;;;;;17.83;43.21;101635.50;5015102;28;20037;-62
2022/02/07 04:45:33;;;;;;;8.35;1.55;;;;;;;17.83;42.95;101632.00;5012149;28;20060;-62
2022/02/07 04:48:32;;;;;;;10.70;2.08;;;;;;;17.83;43.13;101648.69;5013068;28;20084;-63
2022/02/07 04:57:01;;;;;;;6.78;1.52;;;;;;;17.85;43.62;101669.66;5012832;28;20092;-62
2022/02/07 04:59:08;;;;;;;8.93;1.90;;;;;;;17.86;43.39;101676.63;5011679;28;20739;-62
2022/02/07 05:01:54;;;;;;;9.45;1.67;;;;;;;17.88;43.18;101674.75;5012741;28;20113;-62
2022/02/07 05:04:31;;;;;;;6.25;1.50;;;;;;;17.87;43.42;101675.69;5011745;28;20165;-63
2022/02/07 05:15:08;;;;;;;9.00;1.92;;;;;;;17.88;43.33;101706.41;5012285;28;20181;-61
2022/02/07 05:17:37;;;;;;;8.02;1.45;;;;;;;17.86;42.83;101706.47;5012469;28;20109;-62
2022/02/07 05:20:08;;;;;;;7.95;2.03;;;;;;;17.87;42.76;101717.88;5011758;28;20408;-62
2022/02/07 05:22:33;;;;;;;6.85;1.65;;;;;;;17.86;43.09;101719.66;5012305;28;20458;-62
2022/02/07 05:25:05;;;;;;;7.15;1.67;;;;;;;17.86;42.89;101729.38;5012656;28;20030;-62
2022/02/07 05:27:30;;;;;;;6.85;1.88;;;;;;;17.86;43.22;101734.63;5011895;28;20037;-62
2022/02/07 05:29:59;;;;;;;10.02;1.63;;;;;;;17.87;43.33;101742.44;5012319;28;20045;-62
2022/02/07 05:32:24;;;;;;;8.35;1.70;;;;;;;17.88;43.19;101752.09;5011487;28;20041;-61
2022/02/07 05:34:51;;;;;;;8.03;1.70;;;;;;;17.89;43.40;101748.50;5016082;28;20417;-62
2022/02/07 05:37:17;;;;;;;9.48;2.30;;;;;;;17.90;43.26;101754.63;5016000;28;20306;-62
2022/02/07 05:39:46;;;;;;;9.27;2.13;;;;;;;17.89;42.92;101756.41;5015409;28;20029;-62
2022/02/07 05:42:11;;;;;;;7.50;1.95;;;;;;;17.91;43.37;101765.09;5015724;28;20041;-62
2022/02/07 05:44:38;;;;;;;8.27;1.70;;;;;;;17.91;42.96;101772.13;5015659;28;20045;-62
2022/02/07 05:47:05;;;;;;;8.88;1.80;;;;;;;17.90;43.33;101775.72;5015183;28;20108;-62
2022/02/07 05:49:33;;;;;;;9.13;1.70;;;;;;;17.90;43.32;101779.19;5015292;28;20026;-62
2022/02/07 05:51:58;;;;;;;10.85;2.17;;;;;;;17.90;43.31;101783.66;5016036;28;20034;-62
2022/02/07 05:54:24;;;;;;;9.30;2.03;;;;;;;17.90;42.90;101781.00;5014729;28;20026;-62
2022/02/07 05:56:49;;;;;;;8.40;1.70;;;;;;;17.90;43.17;101791.56;5015973;28;20333;-62
2022/02/07 05:59:15;;;;;;;10.82;1.67;;;;;;;17.91;43.09;101795.88;5015454;28;20046;-63
2022/02/07 06:01:43;;;;;;;8.00;1.90;;;;;;;17.90;43.70;101810.00;5014914;28;20109;-62
2022/02/07 06:04:08;;;;;;;8.15;1.70;;;;;;;17.94;43.54;101806.22;5015202;28;20033;-63
2022/02/07 06:06:33;;;;;;;10.87;2.00;;;;;;;17.95;44.57;101818.47;5015613;28;20394;-62
2022/02/07 06:08:59;;;;;;;8.20;1.77;;;;;;;17.98;44.97;101826.19;5015048;28;20631;-62
2022/02/07 06:11:24;;;;;;;7.75;1.58;;;;;;;18.01;44.78;101831.25;5015348;28;20161;-62
2022/02/07 06:13:50;;;;;;;7.60;1.42;;;;;;;18.05;45.13;101834.53;5015593;28;20061;-63
2022/02/07 06:16:17;;;;;;;10.10;2.22;;;;;;;18.06;45.45;101842.34;5014473;28;20026;-63
2022/02/07 06:18:43;;;;;;;7.70;1.80;;;;;;;18.10;45.87;101854.41;5015146;28;20038;-63
2022/02/07 06:21:13;;;;;;;7.65;2.08;;;;;;;18.12;45.88;101863.06;5014926;28;20771;-63
2022/02/07 06:23:39;;;;;;;7.47;1.63;;;;;;;18.14;45.81;101884.06;5014602;28;20057;-63
2022/02/07 06:26:04;;;;;;;7.88;1.40;;;;;;;18.16;45.80;101892.72;5015426;28;20049;-63
2022/02/07 06:28:50;;;;;;;9.45;3.35;;;;;;;18.19;46.33;101883.75;5013955;28;20052;-63
2022/02/07 06:31:18;;;;;;;9.57;1.95;;;;;;;18.21;46.30;101895.06;5021153;28;20502;-63
2022/02/07 06:33:43;;;;;;;8.55;1.63;;;;;;;18.24;46.49;101902.78;5015103;28;20062;-63
2022/02/07 06:36:11;;;;;;;9.25;1.90;;;;;;;18.24;46.41;101898.34;5014106;28;20025;-61
2022/02/07 06:38:36;;;;;;;12.25;2.28;;;;;;;18.27;46.28;101903.41;5014827;28;20114;-62
2022/02/07 06:41:02;;;;;;;6.53;1.98;;;;;;;18.28;45.92;101907.75;5015229;28;20105;-62
2022/02/07 06:43:27;;;;;;;7.10;1.60;;;;;;;18.30;46.15;101916.41;5013473;28;20030;-62
2022/02/07 06:45:53;;;;;;;7.83;1.70;;;;;;;18.31;45.91;101926.03;5013894;28;20076;-61
2022/02/07 06:48:18;;;;;;;8.60;1.80;;;;;;;18.33;45.81;101928.56;5014658;28;20279;-61
2022/02/07 06:50:43;;;;;;;7.70;1.73;;;;;;;18.34;45.54;101932.03;5013990;28;20479;-63
2022/02/07 06:53:09;;;;;;;8.45;2.15;;;;;;;18.35;45.67;101937.22;5014502;28;20721;-62
2022/02/07 06:55:34;;;;;;;8.63;1.65;;;;;;;18.37;45.87;101945.03;5014446;28;20026;-62
2022/02/07 06:57:59;;;;;;;7.50;1.58;;;;;;;18.38;46.36;101950.22;5013940;28;20030;-62
2022/02/07 07:00:25;;;;;;;12.00;2.15;;;;;;;18.39;46.42;101954.56;5013992;28;20030;-62
2022/02/07 07:02:51;;;;;;;7.53;1.60;;;;;;;18.39;45.92;101959.84;5014685;28;20393;-62
2022/02/07 07:05:21;;;;;;;10.05;2.53;;;;;;;18.41;46.05;101965.88;5013481;28;20079;-62
2022/02/07 07:07:47;;;;;;;8.13;1.33;;;;;;;18.41;45.90;101971.16;5014730;28;20095;-63
2022/02/07 07:10:13;;;;;;;9.27;1.63;;;;;;;18.42;46.08;101974.63;5014201;28;20034;-62
2022/02/07 07:12:38;;;;;;;8.73;1.83;;;;;;;18.43;45.98;101976.31;5013567;28;20034;-63
2022/02/07 07:15:12;;;;;;;7.15;1.50;;;;;;;18.44;46.02;101980.66;5014255;28;20021;-62
2022/02/07 07:17:38;;;;;;;7.43;1.65;;;;;;;18.46;45.75;101984.03;5013878;28;20037;-62
2022/02/07 07:20:05;;;;;;;7.95;1.90;;;;;;;18.45;46.03;101991.13;5013886;28;20401;-62
2022/02/07 07:22:32;;;;;;;7.45;1.42;;;;;;;18.46;46.18;101998.06;5013885;28;20046;-62
2022/02/07 07:25:03;;;;;;;7.75;1.80;;;;;;;18.47;45.97;101999.78;5013325;28;20564;-62
2022/02/07 07:27:33;;;;;;;8.43;1.67;;;;;;;18.48;45.97;102005.91;5013827;28;20045;-62
2022/02/07 07:29:58;;;;;;;8.00;1.95;;;;;;;18.49;45.79;102010.25;5014209;28;20026;-62
2022/02/07 07:32:27;;;;;;;8.77;2.03;;;;;;;18.50;45.91;102017.22;5013088;28;20465;-63
2022/02/07 07:34:56;;;;;;;10.75;2.05;;;;;;;18.51;46.26;102016.25;5014039;28;20049;-63
2022/02/07 07:37:22;;;;;;;8.70;2.22;;;;;;;18.52;46.00;102025.03;5013452;28;20025;-63
2022/02/07 07:39:48;;;;;;;9.20;1.90;;;;;;;18.54;46.06;102046.91;5013065;28;20041;-63
2022/02/07 07:42:13;;;;;;;9.35;2.00;;;;;;;18.53;46.14;102048.69;5013729;28;20552;-68
2022/02/07 07:44:39;;;;;;;10.70;1.88;;;;;;;18.51;44.50;102061.13;5013666;28;20081;-62
2022/02/07 07:47:16;;;;;;;13.00;2.78;;;;;;;18.52;45.29;102073.41;5013089;28;20068;-65
2022/02/07 07:49:50;;;;;;;9.82;2.53;;;;;;;18.53;45.65;102090.91;5013636;28;20109;-61
2022/02/07 07:52:30;;;;;;;11.18;1.98;;;;;;;18.56;45.83;102093.38;5013352;28;20046;-63
2022/02/07 07:55:21;;;;;;;8.05;1.55;;;;;;;18.58;45.56;102102.06;5013229;28;20042;-63
2022/02/07 08:03:19;;;;;;;6.60;1.95;;;;;;;18.67;45.59;102114.69;5013300;28;20077;-64
2022/02/07 08:05:49;;;;;;;5.28;1.20;;;;;;;18.69;45.87;102117.19;5013563;28;20029;-64
2022/02/07 08:08:29;;;;;;;8.77;1.60;;;;;;;18.71;46.07;102130.31;5012515;28;20025;-64
2022/02/07 08:11:04;;;;;;;9.02;1.65;;;;;;;18.73;46.22;102139.00;5013334;28;20367;-65
2022/02/07 08:13:31;;;;;;;8.80;1.85;;;;;;;18.74;46.21;102144.19;5013145;28;20034;-64
2022/02/07 08:15:57;;;;;;;9.75;1.70;;;;;;;18.75;46.34;102148.50;5012690;28;20109;-64
2022/02/07 08:18:23;;;;;;;8.48;1.90;;;;;;;18.77;46.39;102164.25;5012907;28;20109;-64
2022/02/07 08:20:48;;;;;;;8.02;1.92;;;;;;;18.77;46.17;102175.69;5013151;28;20466;-62
2022/02/07 08:23:14;;;;;;;10.20;1.83;;;;;;;18.78;46.30;102190.56;5012275;28;20121;-62
2022/02/07 08:25:39;;;;;;;8.55;1.80;;;;;;;18.78;46.03;102177.38;5013026;28;20042;-63
2022/02/07 08:28:06;;;;;;;8.23;1.63;;;;;;;18.79;46.43;102184.34;5012637;28;20117;-63
2022/02/07 08:30:37;;;;;;;5.80;1.65;;;;;;;18.80;46.56;102179.91;5012867;28;20528;-62
2022/02/07 08:33:03;;;;;;;7.90;2.00;;;;;;;18.81;46.25;102179.81;5013175;28;20048;-62
2022/02/07 08:35:30;;;;;;;10.52;1.85;;;;;;;18.81;46.48;102171.88;5011839;28;20026;-63
2022/02/07 08:37:56;;;;;;;5.97;1.65;;;;;;;18.82;46.46;102170.94;5012944;28;20466;-63
2022/02/07 08:40:23;;;;;;;9.77;2.42;;;;;;;18.84;46.25;102176.16;4935726;28;20062;-63
2022/02/07 08:42:48;;;;;;;10.93;2.10;;;;;;;18.86;46.80;102184.84;5011439;28;20481;-62
2022/02/07 08:45:15;;;;;;;10.00;1.70;;;;;;;18.85;44.88;102204.28;5012618;28;20137;-61
2022/02/07 08:47:41;;;;;;;10.50;1.40;;;;;;;18.86;45.94;102211.25;5013011;28;20030;-61
2022/02/07 08:50:07;;;;;;;7.32;1.73;;;;;;;18.87;46.23;102218.25;5012015;28;20072;-63
2022/02/07 08:52:33;;;;;;;9.23;1.83;;;;;;;18.87;46.68;102223.53;5012801;28;20017;-62
2022/02/07 08:55:00;;;;;;;9.55;2.08;;;;;;;18.90;46.95;102217.19;5012815;28;20018;-63
2022/02/07 08:57:31;;;;;;;10.35;1.83;;;;;;;18.90;46.61;102222.47;5011863;28;20136;-62
2022/02/07 09:00:11;;;;;;;8.65;1.90;;;;;;;18.89;46.53;102218.16;5012974;28;20093;-62
2022/02/07 09:02:55;;;;;;;7.93;1.63;;;;;;;18.89;46.63;102204.94;5012863;28;20108;-62
2022/02/07 09:08:07;;;;;;;9.25;1.85;;;;;;;18.89;46.37;102226.06;5015906;28;20038;-62
2022/02/07 09:10:32;;;;;;;9.48;1.75;;;;;;;18.89;46.85;102244.56;5018662;28;20100;-61
2022/02/07 09:12:58;;;;;;;11.55;1.88;;;;;;;18.90;46.50;102259.44;5019248;28;20454;-62
2022/02/07 09:15:33;;;;;;;8.13;1.88;;;;;;;18.90;46.54;102251.53;5018817;28;20034;-62
2022/02/07 09:18:05;;;;;;;5.72;1.60;;;;;;;18.90;46.53;102259.44;5018400;28;20058;-61
2022/02/07 09:20:31;;;;;;;8.43;1.60;;;;;;;18.89;46.50;102271.81;5018856;28;20034;-61
2022/02/07 09:22:57;;;;;;;8.32;2.17;;;;;;;18.89;45.78;102274.47;5019212;28;20109;-61
2022/02/07 09:25:22;;;;;;;8.80;1.95;;;;;;;18.89;46.04;102282.38;5017953;28;20102;-62
2022/02/07 09:27:47;;;;;;;8.75;2.08;;;;;;;18.88;44.45;102280.66;5019157;28;20128;-62
2022/02/07 09:30:12;;;;;;;10.70;2.10;;;;;;;18.85;44.82;102280.88;5018598;28;20104;-61
2022/02/07 09:32:38;;;;;;;9.75;2.00;;;;;;;18.85;45.87;102289.66;5018344;28;20466;-63
2022/02/07 09:35:04;;;;;;;8.18;2.03;;;;;;;18.85;46.55;102305.50;5019168;28;20145;-62
2022/02/07 09:37:29;;;;;;;9.90;2.03;;;;;;;18.87;45.89;102297.50;5018682;28;20112;-62
2022/02/07 09:39:54;;;;;;;9.25;2.13;;;;;;;18.88;45.51;102298.31;5018119;28;20030;-61
2022/02/07 09:42:20;;;;;;;7.63;2.10;;;;;;;18.89;46.02;102318.53;5018621;28;20582;-61
2022/02/07 09:44:54;;;;;;;8.95;1.55;;;;;;;18.89;46.25;102329.94;5018579;28;20104;-61
2022/02/07 09:47:20;;;;;;;7.10;1.80;;;;;;;18.89;46.00;102326.44;5018009;28;20080;-62
2022/02/07 09:49:46;;;;;;;7.50;1.55;;;;;;;18.90;46.04;102336.94;5019042;28;20425;-60
2022/02/07 09:52:13;;;;;;;9.73;2.20;;;;;;;18.91;46.44;102338.59;5018584;28;20065;-60
2022/02/07 09:54:39;;;;;;;11.52;2.10;;;;;;;18.92;46.51;102344.75;5018007;28;20450;-60
2022/02/07 09:57:06;;;;;;;9.05;2.10;;;;;;;18.92;46.72;102348.25;5018769;28;20080;-59
2022/02/07 09:59:32;;;;;;;13.95;2.53;;;;;;;18.91;46.83;102358.91;5017747;28;20100;-60
2022/02/07 10:02:02;;;;;;;8.35;2.03;;;;;;;18.91;46.28;102378.22;5018911;28;20025;-59
2022/02/07 10:04:36;;;;;;;8.57;1.90;;;;;;;18.90;45.74;102373.91;5018607;28;20030;-59
2022/02/07 10:09:45;;;;;;;7.93;1.85;;;;;;;18.91;46.33;102393.25;5018679;28;20029;-61
2022/02/07 10:17:37;;;;;;;7.82;1.92;;;;;;;18.89;46.84;102401.25;5018272;28;20065;-60
2022/02/07 10:20:40;;;;;;;9.23;2.20;;;;;;;18.89;46.50;102416.25;5016070;28;20038;-60
2022/02/07 10:34:32;;;;;;;;;;;;;;;18.88;46.87;102420.69;5015720;28;20124;-60
2022/02/07 10:46:10;;;;;;;7.50;1.90;;;;;;;18.88;47.08;102446.25;5014771;28;20054;-60
2022/02/07 10:48:39;;;;;;;10.38;1.85;;;;;;;18.88;46.68;102455.03;5014989;28;20108;-61
2022/02/07 10:51:22;;;;;;;9.98;2.00;;;;;;;18.87;47.24;102461.25;5014983;28;20022;-60
2022/02/07 10:53:59;;;;;;;7.70;1.75;;;;;;;18.89;46.53;102447.97;5014923;28;20030;-61
2022/02/07 10:56:47;;;;;;;11.60;2.58;;;;;;;18.86;46.86;102462.19;5013822;28;20026;-61
2022/02/07 10:59:18;;;;;;;10.20;2.25;;;;;;;18.89;46.54;102455.88;5014379;28;20072;-60
2022/02/07 11:04:21;;;;;;;8.13;1.90;;;;;;;18.89;46.67;102454.09;5013827;28;20037;-62
2022/02/07 11:06:50;;;;;;;6.40;1.95;;;;;;;18.88;47.09;102462.94;5014854;28;20072;-60
2022/02/07 11:23:30;;;;;;;8.45;1.80;;;;;;;19.06;46.54;102466.31;5012805;28;20560;-60
2022/02/07 11:28:25;;;;;;;6.63;1.83;;;;;;;19.05;44.97;102471.69;5013821;28;20470;-60
2022/02/07 11:30:56;;;;;;;9.00;2.58;;;;;;;19.06;46.04;102471.59;5013712;28;20049;-63
2022/02/07 11:34:20;;;;;;;10.52;2.15;;;;;;;19.18;46.16;102473.50;5014204;28;20485;-62
2022/02/07 11:36:41;;;;;;;7.63;1.77;;;;;;;19.31;45.80;102478.91;5013695;28;20046;-63
2022/02/07 11:39:20;;;;;;;9.73;1.73;;;;;;;19.39;45.66;102484.56;5013153;28;20470;-63
2022/02/07 11:42:00;;;;;;;10.73;2.10;;;;;;;19.47;45.81;102485.88;5014043;28;20026;-64
2022/02/07 11:44:30;;;;;;;8.68;1.80;;;;;;;19.53;45.63;102488.16;5013495;28;20053;-64
2022/02/07 11:47:15;;;;;;;9.10;1.92;;;;;;;19.58;45.54;102481.66;5013399;28;20122;-63
2022/02/07 11:49:46;;;;;;;11.00;2.38;;;;;;;19.63;45.11;102484.00;5013793;28;20034;-65
2022/02/07 11:52:28;;;;;;;7.38;1.85;;;;;;;19.69;45.19;102486.28;5012687;28;20034;-66
2022/02/07 11:54:58;;;;;;;7.88;1.73;;;;;;;19.74;44.86;102499.19;5014049;28;20058;-65
2022/02/07 11:57:33;;;;;;;7.90;1.90;;;;;;;19.75;44.95;102496.44;5013099;28;20053;-66
2022/02/07 11:59:59;;;;;;;7.55;2.38;;;;;;;19.75;44.74;102485.88;5013040;28;20042;-64
2022/02/07 12:02:47;;;;;;;9.45;2.13;;;;;;;19.72;44.94;102495.78;5013181;28;20026;-62
2022/02/07 12:05:17;;;;;;;8.55;2.08;;;;;;;19.72;44.84;102493.16;5013406;28;20022;-62
2022/02/07 12:07:42;;;;;;;7.75;1.50;;;;;;;19.71;44.64;102481.72;5012960;28;20132;-64
2022/02/07 12:10:27;;;;;;;6.25;1.88;;;;;;;19.74;44.67;102488.59;5013558;28;20092;-68
2022/02/07 12:12:53;;;;;;;6.65;1.42;;;;;;;19.74;43.94;102481.53;5013559;28;20053;-60
2022/02/07 12:15:44;;;;;;;10.45;2.30;;;;;;;19.72;43.74;102479.94;5012915;28;20080;-62
2022/02/07 12:18:12;;;;;;;7.55;1.95;;;;;;;19.72;44.00;102479.94;5013057;28;20564;-62
2022/02/07 12:20:38;;;;;;;8.35;1.60;;;;;;;19.74;44.39;102480.66;5012416;28;20568;-62
2022/02/07 12:23:14;;;;;;;7.20;1.80;;;;;;;19.75;44.41;102474.44;5013470;28;20044;-63
2022/02/07 12:25:43;;;;;;;8.75;1.92;;;;;;;19.82;43.90;102477.59;5013151;28;20413;-63
2022/02/07 12:28:15;;;;;;;8.10;1.65;;;;;;;19.84;43.85;102476.56;5012181;28;20497;-64
2022/02/07 12:30:59;;;;;;;8.05;1.52;;;;;;;19.87;43.71;102475.53;5013233;28;20053;-65
2022/02/07 12:33:25;;;;;;;8.40;1.80;;;;;;;19.90;43.84;102484.09;5015344;28;20099;-65
2022/02/07 12:35:53;;;;;;;11.95;1.75;;;;;;;19.93;43.80;102483.91;5013420;28;20022;-65
2022/02/07 12:38:19;;;;;;;6.18;1.65;;;;;;;19.94;43.92;102495.34;5013393;28;20067;-64
2022/02/07 12:40:45;;;;;;;7.10;1.60;;;;;;;19.96;43.49;102500.53;5014176;28;20037;-64
2022/02/07 12:43:12;;;;;;;9.40;2.10;;;;;;;19.94;43.79;102487.41;5011201;28;20112;-65
2022/02/07 12:45:40;;;;;;;9.38;1.98;;;;;;;19.92;43.90;102486.66;5012784;28;20042;-65
2022/02/07 12:48:12;;;;;;;8.20;1.88;;;;;;;19.89;43.65;102495.63;5012898;28;20070;-64
2022/02/07 12:50:39;;;;;;;7.25;1.40;;;;;;;19.89;43.72;102502.72;5013236;28;20026;-65
2022/02/07 12:53:04;;;;;;;8.20;1.98;;;;;;;19.86;43.75;102506.41;5013100;28;20413;-65
2022/02/07 12:55:31;;;;;;;12.18;1.85;;;;;;;19.85;43.26;102486.19;5012170;28;20025;-65
2022/02/07 12:57:58;;;;;;;7.45;1.50;;;;;;;19.85;43.07;102495.91;5013254;28;20038;-65
2022/02/07 13:00:27;;;;;;;8.63;1.73;;;;;;;19.85;43.53;102501.19;5012799;28;20025;-65
2022/02/07 13:02:52;;;;;;;6.85;1.60;;;;;;;19.85;43.50;102512.66;5012473;28;20037;-65
2022/02/07 13:05:20;;;;;;;8.32;1.35;;;;;;;19.86;42.97;102519.63;5012743;28;20045;-63
2022/02/07 13:07:49;;;;;;;7.55;1.60;;;;;;;19.79;43.68;102513.03;5012725;28;20489;-63
2022/02/07 13:10:22;;;;;;;8.07;1.58;;;;;;;19.73;43.92;102521.31;5011863;28;20104;-62
2022/02/07 13:15:32;;;;;;;8.32;1.55;;;;;;;19.73;44.49;102526.59;5013251;28;20037;-63
2022/02/07 13:18:02;;;;;;;8.05;1.75;;;;;;;19.80;44.59;102521.81;5015185;28;20484;-65
2022/02/07 13:20:27;;;;;;;8.38;1.45;;;;;;;19.88;44.47;102533.59;5012940;28;20038;-67
2022/02/07 13:23:15;;;;;;;10.45;1.80;;;;;;;19.94;44.31;102522.63;5013141;28;20030;-66
2022/02/07 13:25:50;;;;;;;6.82;1.60;;;;;;;20.00;44.28;102526.72;5011964;28;20470;-65
2022/02/07 13:28:25;;;;;;;7.32;1.50;;;;;;;20.06;44.06;102526.31;5012666;28;20034;-66
2022/02/07 13:30:53;;;;;;;5.47;1.60;;;;;;;20.11;44.14;102534.81;5012086;28;20443;-66
2022/02/07 13:33:19;;;;;;;10.13;1.42;;;;;;;20.18;43.72;102540.56;5012389;28;20105;-65
2022/02/07 13:35:48;;;;;;;12.38;2.13;;;;;;;20.23;43.74;102540.28;5012576;28;20549;-65
2022/02/07 13:38:15;;;;;;;6.22;1.52;;;;;;;20.27;43.61;102547.09;5011377;28;20110;-65
2022/02/07 13:40:46;;;;;;;10.55;1.77;;;;;;;20.28;41.24;102554.06;5012606;28;20069;-64
2022/02/07 13:43:22;;;;;;;8.60;1.70;;;;;;;20.28;42.60;102551.41;5012028;28;20030;-64
2022/02/07 13:45:50;;;;;;;6.05;1.27;;;;;;;20.34;42.66;102558.13;5011582;28;20442;-64
2022/02/07 13:48:18;;;;;;;8.65;1.90;;;;;;;20.37;42.67;102564.06;5012299;28;20505;-64
2022/02/07 13:51:05;;;;;;;8.43;1.55;;;;;;;20.41;42.78;102564.72;5012217;28;20049;-65
2022/02/07 13:53:31;;;;;;;7.15;1.50;;;;;;;20.45;42.45;102553.84;5011439;28;20527;-64
2022/02/07 13:55:58;;;;;;;9.48;1.92;;;;;;;20.51;42.41;102567.66;5016289;28;20120;-64